Time;durP1;ratioP1;P1;durP2;ratioP2;P2;SDS_P1;SDS_P2;PMS_P1;PMS_P2;Temp;Humidity;BMP_temperature;BMP_pressure;BME280_temperature;BME280_humidity;BME280_pressure;Samples;Min_cycle;Max_cycle;Signal;HPM_P1;HPM_P2
2022/11/27 05:22:34;;;;;;;13.60;6.25;;;;;;;2.25;100.00;101307.72;5087655;28;20950;-65
2022/11/27 05:24:59;;;;;;;5.68;3.72;;;;;;;2.27;100.00;101303.22;5089046;28;20036;-66
2022/11/27 05:27:25;;;;;;;8.43;3.03;;;;;;;2.30;100.00;101304.81;5088820;28;20066;-66
2022/11/27 05:29:50;;;;;;;6.50;3.55;;;;;;;2.31;100.00;101294.22;5089381;28;20115;-65
2022/11/27 05:32:16;;;;;;;4.57;2.30;;;;;;;2.40;100.00;101296.25;5088637;28;20689;-66
2022/11/27 05:34:41;;;;;;;5.97;3.10;;;;;;;2.42;100.00;101302.28;5088854;28;20040;-66
2022/11/27 05:37:06;;;;;;;8.65;3.35;;;;;;;2.43;100.00;101296.09;5088751;28;20068;-65
2022/11/27 05:39:32;;;;;;;6.93;2.97;;;;;;;2.39;100.00;101301.63;5089193;28;20103;-66
2022/11/27 05:41:57;;;;;;;6.90;2.67;;;;;;;2.41;100.00;101305.88;5088507;28;20489;-66
2022/11/27 05:44:23;;;;;;;6.55;3.38;;;;;;;2.43;100.00;101316.28;5088707;28;20048;-67
2022/11/27 05:46:48;;;;;;;6.10;3.00;;;;;;;2.44;100.00;101317.97;5088659;28;20043;-66
2022/11/27 05:49:14;;;;;;;5.68;2.63;;;;;;;2.45;100.00;101304.72;5088826;28;20040;-65
2022/11/27 05:51:40;;;;;;;6.63;2.88;;;;;;;2.49;100.00;101301.91;5088255;28;20044;-65
2022/11/27 05:54:05;;;;;;;6.88;3.20;;;;;;;2.49;100.00;101304.53;5089100;28;20177;-64
2022/11/27 05:56:31;;;;;;;4.35;2.75;;;;;;;2.45;100.00;101303.88;5088640;28;20044;-66
2022/11/27 05:58:56;;;;;;;6.57;3.53;;;;;;;2.42;100.00;101299.66;5088542;28;20048;-65
2022/11/27 06:01:22;;;;;;;7.18;2.60;;;;;;;2.43;100.00;101292.59;5088076;28;20055;-66
2022/11/27 06:03:47;;;;;;;4.97;2.75;;;;;;;2.35;100.00;101293.09;5088347;28;20083;-66
2022/11/27 06:06:15;;;;;;;5.72;3.22;;;;;;;2.44;100.00;101297.78;5088547;28;20039;-65
2022/11/27 06:08:42;;;;;;;4.60;3.15;;;;;;;2.40;100.00;101298.88;5088417;28;20043;-66
2022/11/27 06:11:16;;;;;;;5.22;2.70;;;;;;;2.42;100.00;101290.94;5087868;28;20037;-66
2022/11/27 06:13:42;;;;;;;9.10;3.42;;;;;;;2.38;100.00;101282.38;5086839;28;20401;-65
2022/11/27 06:16:15;;;;;;;5.30;2.83;;;;;;;2.33;100.00;101284.44;5088091;28;20032;-65
2022/11/27 06:18:41;;;;;;;5.65;3.25;;;;;;;2.30;100.00;101271.50;5088097;28;20032;-64
2022/11/27 06:21:12;;;;;;;7.32;3.20;;;;;;;2.35;100.00;101261.53;5087674;28;20043;-64
2022/11/27 06:23:38;;;;;;;4.45;3.10;;;;;;;2.37;100.00;101250.91;5087990;28;20138;-64
2022/11/27 06:26:24;;;;;;;6.30;3.50;;;;;;;2.44;100.00;101244.31;5087840;28;20044;-66
2022/11/27 06:28:50;;;;;;;6.35;2.45;;;;;;;2.47;100.00;101243.28;5087921;28;20036;-64
2022/11/27 06:31:18;;;;;;;8.07;3.05;;;;;;;2.41;100.00;101228.72;5087416;28;20427;-65
2022/11/27 06:33:49;;;;;;;8.45;3.38;;;;;;;2.49;100.00;101228.25;5075424;28;20044;-65
2022/11/27 06:36:15;;;;;;;5.18;2.42;;;;;;;2.45;100.00;101223.19;5074142;28;20082;-64
2022/11/27 06:38:41;;;;;;;9.18;3.72;;;;;;;2.52;100.00;101226.25;5074265;28;20025;-63
2022/11/27 06:41:12;;;;;;;7.45;2.58;;;;;;;2.48;100.00;101223.91;5073859;28;20123;-65
2022/11/27 06:43:38;;;;;;;7.90;2.95;;;;;;;2.44;100.00;101224.13;5074190;28;20040;-65
2022/11/27 06:46:06;;;;;;;3.65;2.85;;;;;;;2.38;100.00;101239.44;5073944;28;20044;-65
2022/11/27 06:48:33;;;;;;;4.50;2.75;;;;;;;2.29;100.00;101235.63;5074227;28;20035;-66
2022/11/27 06:51:03;;;;;;;4.20;2.45;;;;;;;2.26;100.00;101248.94;5073697;28;20036;-66
2022/11/27 06:53:30;;;;;;;3.22;1.90;;;;;;;2.28;100.00;101248.84;5074081;28;20071;-64
2022/11/27 06:55:56;;;;;;;5.25;2.83;;;;;;;2.32;100.00;101248.56;5073803;28;20117;-63
2022/11/27 06:58:22;;;;;;;4.20;2.33;;;;;;;2.26;100.00;101254.19;5073951;28;20036;-63
2022/11/27 07:00:48;;;;;;;5.43;2.20;;;;;;;2.07;100.00;101251.03;5073495;28;20060;-64
2022/11/27 07:03:13;;;;;;;5.95;2.72;;;;;;;2.06;100.00;101250.19;5073776;28;20066;-64
2022/11/27 07:05:38;;;;;;;7.30;2.92;;;;;;;2.11;100.00;101249.91;5073702;28;20044;-65
2022/11/27 07:08:04;;;;;;;2.80;1.90;;;;;;;2.00;100.00;101240.03;5073776;28;20036;-65
2022/11/27 07:10:33;;;;;;;4.20;2.42;;;;;;;1.84;100.00;101229.63;5073456;28;20539;-62
2022/11/27 07:12:59;;;;;;;4.90;2.60;;;;;;;2.00;100.00;101215.53;5073748;28;20028;-56
2022/11/27 07:15:24;;;;;;;6.10;2.42;;;;;;;2.09;100.00;101201.84;5073598;28;20401;-60
2022/11/27 07:17:50;;;;;;;4.68;2.42;;;;;;;2.14;100.00;101192.72;5073734;28;20032;-66
2022/11/27 07:20:15;;;;;;;4.82;2.25;;;;;;;2.20;100.00;101194.13;5073136;28;20449;-65
2022/11/27 07:22:41;;;;;;;4.60;1.90;;;;;;;2.17;100.00;101202.22;5073541;28;20040;-66
2022/11/27 07:25:07;;;;;;;4.40;2.47;;;;;;;2.06;100.00;101205.50;5073572;28;20448;-66
2022/11/27 07:27:32;;;;;;;6.70;2.83;;;;;;;2.11;100.00;101215.72;5073407;28;20094;-65
2022/11/27 07:29:57;;;;;;;4.32;2.28;;;;;;;1.94;100.00;101208.03;5073326;28;20121;-64
2022/11/27 07:32:23;;;;;;;3.83;2.80;;;;;;;1.95;100.00;101194.78;5073104;28;20040;-66
2022/11/27 07:34:48;;;;;;;5.45;2.45;;;;;;;1.94;100.00;101198.38;5052707;28;20052;-66
2022/11/27 07:37:13;;;;;;;5.82;2.28;;;;;;;2.04;100.00;101191.63;5067874;28;20053;-66
2022/11/27 07:39:39;;;;;;;2.75;1.98;;;;;;;2.02;100.00;101201.38;5066540;28;20044;-66
2022/11/27 07:42:04;;;;;;;3.45;2.08;;;;;;;2.07;100.00;101214.22;5071925;28;20036;-66
2022/11/27 07:44:30;;;;;;;6.20;2.85;;;;;;;2.00;100.00;101223.44;5070346;28;20044;-66
2022/11/27 07:46:55;;;;;;;5.25;2.60;;;;;;;2.03;100.00;101218.84;5072609;28;20434;-66
2022/11/27 07:49:20;;;;;;;3.08;2.25;;;;;;;2.06;100.00;101223.06;5071548;28;20116;-64
2022/11/27 07:51:46;;;;;;;5.10;2.65;;;;;;;2.06;100.00;101241.44;5070630;28;20037;-66
2022/11/27 07:54:11;;;;;;;7.10;3.03;;;;;;;2.14;100.00;101233.94;5072570;28;20036;-66
2022/11/27 07:56:36;;;;;;;3.75;2.05;;;;;;;2.14;100.00;101239.19;5072709;28;20079;-66
2022/11/27 07:59:02;;;;;;;4.55;2.47;;;;;;;2.06;100.00;101228.31;5073219;28;20055;-66
2022/11/27 08:01:27;;;;;;;4.15;2.33;;;;;;;2.11;100.00;101232.34;5063954;28;20029;-66
2022/11/27 08:03:53;;;;;;;2.85;1.92;;;;;;;2.12;100.00;101228.78;5070229;28;20082;-66
2022/11/27 08:06:24;;;;;;;2.83;1.73;;;;;;;2.15;100.00;101228.59;5069029;28;20048;-66
2022/11/27 08:08:50;;;;;;;3.15;2.25;;;;;;;2.12;100.00;101205.13;5052832;28;20043;-65
2022/11/27 08:11:21;;;;;;;3.92;2.28;;;;;;;2.21;100.00;101190.53;5051685;28;20405;-66
2022/11/27 08:13:47;;;;;;;3.35;2.30;;;;;;;2.27;100.00;101184.91;5060117;28;20098;-66
2022/11/27 08:16:13;;;;;;;2.20;2.00;;;;;;;2.27;100.00;101179.63;5054873;28;20040;-66
2022/11/27 08:18:38;;;;;;;4.15;2.42;;;;;;;2.21;100.00;101168.66;5053625;28;20452;-66
2022/11/27 08:21:04;;;;;;;2.58;2.00;;;;;;;2.26;100.00;101156.09;5053745;28;20040;-67
2022/11/27 08:23:29;;;;;;;3.28;1.90;;;;;;;2.31;100.00;101139.06;5051777;28;20048;-67
2022/11/27 08:25:55;;;;;;;3.60;2.75;;;;;;;2.34;100.00;101141.50;5051944;28;20036;-66
2022/11/27 08:28:20;;;;;;;4.57;2.42;;;;;;;2.29;100.00;101146.22;5052232;28;20068;-66
2022/11/27 08:30:54;;;;;;;2.72;2.00;;;;;;;2.20;100.00;101162.56;5056798;28;20082;-67
2022/11/27 08:33:20;;;;;;;4.53;2.13;;;;;;;2.12;100.00;101155.16;5069824;28;20458;-66
2022/11/27 08:35:48;;;;;;;6.60;2.88;;;;;;;2.30;100.00;101149.69;5072075;28;20055;-66
2022/11/27 08:38:14;;;;;;;4.65;2.05;;;;;;;2.21;100.00;101142.38;5072139;28;20036;-67
2022/11/27 08:40:39;;;;;;;4.03;2.60;;;;;;;2.23;100.00;101138.72;5071740;28;20033;-67
2022/11/27 08:43:05;;;;;;;4.88;2.92;;;;;;;2.32;100.00;101140.75;5070688;28;20040;-67
2022/11/27 08:45:31;;;;;;;5.57;2.80;;;;;;;2.14;100.00;101139.28;5071935;28;20079;-67
2022/11/27 08:47:57;;;;;;;4.20;2.78;;;;;;;2.31;100.00;101143.50;5071947;28;20032;-67
2022/11/27 08:50:23;;;;;;;5.13;2.40;;;;;;;2.49;100.00;101154.63;5071498;28;20064;-66
2022/11/27 08:52:48;;;;;;;5.28;2.67;;;;;;;2.67;100.00;101141.13;5072059;28;20067;-67
2022/11/27 08:55:14;;;;;;;4.18;2.40;;;;;;;2.64;100.00;101143.09;5071503;28;20482;-66
2022/11/27 08:57:39;;;;;;;3.40;2.40;;;;;;;2.70;100.00;101145.31;5071770;28;20063;-66
2022/11/27 09:00:07;;;;;;;7.13;2.95;;;;;;;2.72;100.00;101159.22;5071756;28;20097;-67
2022/11/27 09:02:33;;;;;;;9.02;5.13;;;;;;;2.94;100.00;101167.38;5071612;28;20032;-67
2022/11/27 09:05:01;;;;;;;6.70;4.50;;;;;;;3.07;100.00;101169.22;5071780;28;20035;-66
2022/11/27 09:07:27;;;;;;;6.30;3.17;;;;;;;3.19;100.00;101171.00;5071739;28;20511;-66
2022/11/27 09:09:52;;;;;;;2.95;2.17;;;;;;;3.20;100.00;101170.06;5071692;28;20044;-67
2022/11/27 09:12:18;;;;;;;4.32;2.75;;;;;;;3.22;100.00;101170.81;5071396;28;20043;-67
2022/11/27 09:14:43;;;;;;;4.70;2.47;;;;;;;3.29;100.00;101171.22;5071644;28;20036;-67
2022/11/27 09:17:09;;;;;;;4.40;2.50;;;;;;;3.29;100.00;101164.16;5071546;28;20799;-67
2022/11/27 09:19:34;;;;;;;3.22;2.25;;;;;;;3.25;100.00;101157.41;5071669;28;20451;-67
2022/11/27 09:22:00;;;;;;;3.33;1.95;;;;;;;3.25;100.00;101165.31;5071177;28;20574;-67
2022/11/27 09:24:25;;;;;;;3.28;2.22;;;;;;;3.27;100.00;101145.00;5071586;28;20116;-67
2022/11/27 09:26:51;;;;;;;4.40;2.30;;;;;;;3.28;100.00;101143.22;5071638;28;20559;-67
2022/11/27 09:29:16;;;;;;;3.40;2.33;;;;;;;3.35;100.00;101149.75;5071454;28;20044;-67
2022/11/27 09:31:41;;;;;;;5.72;3.28;;;;;;;3.31;100.00;101143.00;5071014;28;20134;-67
2022/11/27 09:34:07;;;;;;;3.90;2.67;;;;;;;3.31;100.00;101135.94;5071425;28;20059;-67
2022/11/27 09:36:32;;;;;;;4.93;2.95;;;;;;;3.21;100.00;101129.63;5071393;28;20059;-67
2022/11/27 09:38:59;;;;;;;5.43;3.13;;;;;;;3.23;100.00;101132.97;5071409;28;20040;-67
2022/11/27 09:41:42;;;;;;;6.43;2.97;;;;;;;3.34;100.00;101134.91;5071136;28;20024;-67
2022/11/27 09:44:29;;;;;;;3.90;2.75;;;;;;;3.35;100.00;101136.56;5071927;28;20554;-67
2022/11/27 09:46:58;;;;;;;5.13;3.53;;;;;;;3.49;100.00;101134.66;5071504;28;20119;-67
2022/11/27 09:49:35;;;;;;;6.18;3.58;;;;;;;3.46;100.00;101136.69;5071302;28;20123;-67
2022/11/27 09:52:25;;;;;;;6.30;4.18;;;;;;;3.57;100.00;101142.03;5070998;28;20033;-67
2022/11/27 09:55:16;;;;;;;7.10;4.00;;;;;;;3.57;100.00;101143.84;5071342;28;20086;-67
2022/11/27 09:57:52;;;;;;;5.60;4.22;;;;;;;3.66;100.00;101138.78;5071271;28;20047;-67
2022/11/27 10:00:19;;;;;;;6.95;4.00;;;;;;;3.64;100.00;101132.75;5071079;28;20093;-67
2022/11/27 10:02:45;;;;;;;5.35;3.78;;;;;;;3.64;100.00;101142.44;5071307;28;20025;-67
2022/11/27 10:05:17;;;;;;;7.88;4.78;;;;;;;3.62;100.00;101129.41;5071322;28;20416;-67
2022/11/27 10:08:00;;;;;;;7.65;4.22;;;;;;;3.66;100.00;101128.25;5072177;28;20032;-67
2022/11/27 10:10:41;;;;;;;7.30;4.75;;;;;;;3.70;100.00;101118.31;5073367;28;20489;-67
2022/11/27 10:13:24;;;;;;;8.77;4.57;;;;;;;3.71;100.00;101117.34;5074693;28;20521;-67
2022/11/27 10:15:55;;;;;;;5.85;4.18;;;;;;;3.61;100.00;101122.44;5074654;28;20055;-68
2022/11/27 10:18:42;;;;;;;7.60;4.45;;;;;;;3.71;100.00;101117.34;5074791;28;20059;-67
2022/11/27 10:21:19;;;;;;;11.43;5.28;;;;;;;3.67;100.00;101113.28;5074258;28;20040;-67
2022/11/27 10:24:15;;;;;;;8.02;5.10;;;;;;;3.76;100.00;101104.69;5074616;28;20032;-67
2022/11/27 10:26:56;;;;;;;8.52;5.25;;;;;;;3.71;100.00;101101.53;5074319;28;20417;-67
2022/11/27 10:29:38;;;;;;;10.18;4.78;;;;;;;3.84;100.00;101102.34;5074627;28;20033;-67
2022/11/27 10:32:11;;;;;;;12.75;5.22;;;;;;;3.72;100.00;101077.75;5073947;28;20078;-68
2022/11/27 10:34:41;;;;;;;12.48;4.80;;;;;;;3.88;100.00;101088.03;5074561;28;20067;-67
2022/11/27 10:37:17;;;;;;;7.13;3.85;;;;;;;3.82;100.00;101080.56;5074401;28;20044;-67
2022/11/27 10:40:00;;;;;;;9.75;4.30;;;;;;;3.82;100.00;101072.63;5074452;28;20036;-68
2022/11/27 10:42:36;;;;;;;9.57;5.00;;;;;;;3.87;100.00;101074.97;5074217;28;20135;-67
2022/11/27 10:45:06;;;;;;;9.65;5.28;;;;;;;3.88;100.00;101056.38;5074544;28;20037;-68
2022/11/27 10:47:32;;;;;;;9.32;4.97;;;;;;;3.82;100.00;101041.00;5074249;28;20033;-68
2022/11/27 10:49:58;;;;;;;13.13;6.28;;;;;;;3.85;100.00;101035.53;5074137;28;20090;-68
2022/11/27 10:52:24;;;;;;;14.15;6.70;;;;;;;3.79;100.00;101028.91;5073917;28;20111;-68
2022/11/27 10:55:00;;;;;;;13.70;5.38;;;;;;;3.79;100.00;101020.16;5072845;28;20049;-68
2022/11/27 10:57:51;;;;;;;11.00;4.68;;;;;;;3.89;100.00;101005.34;5074051;28;20071;-68
2022/11/27 11:00:24;;;;;;;6.97;4.55;;;;;;;3.93;100.00;101001.56;5073846;28;20115;-68
2022/11/27 11:03:01;;;;;;;9.05;5.15;;;;;;;3.96;100.00;100998.66;5074124;28;20039;-68
2022/11/27 11:05:27;;;;;;;10.93;5.18;;;;;;;4.03;100.00;100989.34;5074165;28;20041;-67
2022/11/27 11:08:03;;;;;;;10.10;4.32;;;;;;;4.13;100.00;100986.06;5074894;28;20028;-68
2022/11/27 11:10:42;;;;;;;11.40;4.75;;;;;;;4.18;100.00;100978.66;5073457;28;20040;-67
2022/11/27 11:13:18;;;;;;;10.20;4.65;;;;;;;4.13;100.00;100984.25;5073796;28;20032;-67
2022/11/27 11:15:48;;;;;;;8.18;4.40;;;;;;;4.13;100.00;100988.69;5073561;28;20033;-67
2022/11/27 11:18:22;;;;;;;11.20;4.13;;;;;;;4.17;100.00;100977.78;5073630;28;20069;-67
2022/11/27 11:20:56;;;;;;;12.43;4.32;;;;;;;4.25;100.00;100986.00;5073270;28;20033;-67
2022/11/27 11:23:34;;;;;;;7.22;4.47;;;;;;;4.31;100.00;100987.34;5073628;28;20082;-68
2022/11/27 11:26:23;;;;;;;;;;;;;;;4.29;100.00;100995.34;5073894;28;20469;-68
2022/11/27 11:29:01;;;;;;;11.65;5.25;;;;;;;4.32;100.00;100989.00;5070423;28;20377;-68
2022/11/27 11:31:37;;;;;;;12.50;5.25;;;;;;;4.33;100.00;100980.97;5071405;22;20072;-60
2022/11/27 11:34:12;;;;;;;14.05;6.32;;;;;;;4.31;100.00;100984.69;5053118;28;20048;-61
2022/11/27 11:36:38;;;;;;;14.15;5.90;;;;;;;4.38;100.00;100990.34;5053212;28;20052;-62
2022/11/27 11:39:03;;;;;;;13.23;5.10;;;;;;;4.36;100.00;100982.53;5053155;28;20029;-63
2022/11/27 11:41:38;;;;;;;10.52;5.28;;;;;;;4.27;100.00;100970.88;5052727;28;20031;-62
2022/11/27 11:44:04;;;;;;;12.75;5.88;;;;;;;4.28;100.00;100967.28;5052898;28;20060;-62
2022/11/27 11:46:32;;;;;;;9.18;5.03;;;;;;;4.27;100.00;100962.13;5053011;28;20477;-61
2022/11/27 11:49:00;;;;;;;8.23;4.40;;;;;;;4.27;100.00;100959.50;5052801;28;20041;-62
2022/11/27 11:51:36;;;;;;;11.48;4.63;;;;;;;4.21;100.00;100950.25;5052370;28;20032;-63
2022/11/27 11:54:21;;;;;;;10.32;4.78;;;;;;;4.18;100.00;100944.38;5051435;28;20498;-61
2022/11/27 11:56:51;;;;;;;7.00;4.38;;;;;;;4.19;100.00;100951.31;5052717;28;20441;-62
2022/11/27 11:59:40;;;;;;;8.70;4.22;;;;;;;4.26;100.00;100944.63;5052690;28;20090;-64
2022/11/27 12:02:19;;;;;;;10.25;4.88;;;;;;;4.26;100.00;100937.56;5058680;28;20024;-64
2022/11/27 12:05:07;;;;;;;10.65;4.47;;;;;;;4.25;100.00;100935.03;5058982;28;20078;-64
2022/11/27 12:07:45;;;;;;;8.98;4.68;;;;;;;4.29;100.00;100942.59;5061091;28;20167;-65
2022/11/27 12:10:23;;;;;;;12.57;4.80;;;;;;;4.32;100.00;100930.97;5060146;28;20024;-62
2022/11/27 12:12:54;;;;;;;;;;;;;;;4.32;100.00;100923.91;5068897;28;20047;-62
2022/11/27 12:15:48;;;;;;;10.02;4.45;;;;;;;4.40;100.00;100927.75;5072858;28;20024;-62
2022/11/27 12:18:22;;;;;;;12.93;4.97;;;;;;;4.35;100.00;100928.94;5072298;28;20037;-63
2022/11/27 12:21:13;;;;;;;12.13;5.13;;;;;;;4.38;100.00;100922.59;5072194;28;20100;-62
2022/11/27 12:23:50;;;;;;;10.38;4.13;;;;;;;4.45;100.00;100913.25;5072092;28;20043;-63
2022/11/27 12:26:27;;;;;;;8.35;4.20;;;;;;;4.55;100.00;100923.94;5072157;28;20071;-64
2022/11/27 12:29:33;;;;;;;9.15;4.00;;;;;;;4.51;100.00;100912.78;5072102;28;20063;-60
2022/11/27 12:32:05;;;;;;;8.57;4.35;;;;;;;4.62;100.00;100919.84;5060131;28;20110;-64
2022/11/27 12:34:55;;;;;;;9.32;4.10;;;;;;;4.58;100.00;100908.72;5070712;28;20040;-62
2022/11/27 12:37:31;;;;;;;7.90;3.88;;;;;;;4.71;100.00;100907.78;5071911;28;20437;-61
2022/11/27 12:40:09;;;;;;;7.95;4.45;;;;;;;4.75;100.00;100903.91;5071791;28;20150;-63
2022/11/27 12:42:50;;;;;;;5.28;3.50;;;;;;;4.75;100.00;100904.75;5071699;28;20028;-64
2022/11/27 12:45:33;;;;;;;5.95;3.97;;;;;;;4.75;100.00;100888.06;5071806;28;20059;-64
2022/11/27 12:48:11;;;;;;;5.95;4.10;;;;;;;4.74;100.00;100886.41;5071622;28;20036;-63
2022/11/27 12:50:49;;;;;;;10.23;4.25;;;;;;;4.80;100.00;100884.13;5030051;28;20060;-65
2022/11/27 12:53:34;;;;;;;10.23;4.50;;;;;;;4.86;100.00;100888.06;5030934;28;20044;-63
2022/11/27 12:56:17;;;;;;;9.02;4.32;;;;;;;4.84;100.00;100885.56;5031839;28;20075;-64
2022/11/27 12:58:47;;;;;;;6.55;3.83;;;;;;;4.90;100.00;100871.88;5031845;28;20083;-64
2022/11/27 13:01:18;;;;;;;7.68;3.72;;;;;;;4.91;100.00;100872.72;5031506;28;20417;-64
2022/11/27 13:04:21;;;;;;;8.30;3.90;;;;;;;5.02;100.00;100869.22;5031667;28;20033;-64
2022/11/27 13:07:17;;;;;;;7.20;4.22;;;;;;;5.09;100.00;100876.53;5047025;28;20092;-64
2022/11/27 13:09:55;;;;;;;8.82;4.28;;;;;;;5.04;100.00;100862.88;5023454;28;20085;-63
2022/11/27 13:12:30;;;;;;;6.28;4.30;;;;;;;5.03;100.00;100868.28;5031351;28;20406;-62
2022/11/27 13:15:25;;;;;;;10.35;4.57;;;;;;;5.12;100.00;100878.09;5014012;28;20057;-64
2022/11/27 13:17:59;;;;;;;6.57;3.83;;;;;;;5.11;100.00;100879.91;5030424;28;20041;-64
2022/11/27 13:20:32;;;;;;;9.60;4.95;;;;;;;5.16;100.00;100880.38;5031385;28;20037;-61
2022/11/27 13:22:58;;;;;;;7.82;4.35;;;;;;;5.14;100.00;100879.63;5030495;28;20486;-64
2022/11/27 13:25:25;;;;;;;7.80;4.15;;;;;;;5.24;100.00;100873.63;5031556;28;20071;-64
2022/11/27 13:27:52;;;;;;;8.75;4.57;;;;;;;5.20;100.00;100865.09;5031570;28;20045;-64
2022/11/27 13:30:24;;;;;;;6.00;3.65;;;;;;;5.16;100.00;100859.25;5029726;28;20041;-64
2022/11/27 13:32:56;;;;;;;9.27;4.78;;;;;;;5.23;100.00;100856.94;5030222;28;20041;-67
2022/11/27 13:35:29;;;;;;;4.93;3.40;;;;;;;5.20;100.00;100843.13;5030608;28;20383;-64
2022/11/27 13:38:40;;;;;;;9.57;4.05;;;;;;;5.16;100.00;100835.47;5031417;28;20083;-64
2022/11/27 13:41:07;;;;;;;5.78;4.15;;;;;;;5.01;100.00;100815.56;5029778;28;20048;-64
2022/11/27 13:43:38;;;;;;;7.07;4.18;;;;;;;5.00;100.00;100824.44;5016511;28;20068;-63
2022/11/27 13:46:17;;;;;;;13.63;5.35;;;;;;;4.99;100.00;100817.50;5034444;28;20109;-63
2022/11/27 13:48:50;;;;;;;10.27;5.03;;;;;;;5.02;100.00;100819.91;5034720;28;20025;-63
2022/11/27 13:51:28;;;;;;;7.35;4.13;;;;;;;5.02;100.00;100809.34;5034848;28;20478;-62
2022/11/27 13:54:09;;;;;;;9.30;4.80;;;;;;;5.08;100.00;100803.53;5035380;28;20475;-64
2022/11/27 13:56:35;;;;;;;9.15;4.55;;;;;;;5.07;100.00;100804.50;5035193;28;20560;-64
2022/11/27 13:59:12;;;;;;;6.68;3.60;;;;;;;5.12;100.00;100799.69;5035143;28;20030;-63
2022/11/27 14:01:38;;;;;;;8.73;4.00;;;;;;;5.04;100.00;100794.19;5034610;28;20033;-61
2022/11/27 14:04:08;;;;;;;6.93;3.97;;;;;;;5.10;100.00;100777.88;5035015;28;20493;-60
2022/11/27 14:06:35;;;;;;;8.80;4.35;;;;;;;5.00;100.00;100774.28;5034769;28;20071;-64
2022/11/27 14:09:03;;;;;;;8.27;4.25;;;;;;;4.99;100.00;100759.41;5034999;28;20037;-65
2022/11/27 14:11:45;;;;;;;10.07;3.88;;;;;;;5.08;100.00;100761.28;5034350;28;20037;-65
2022/11/27 14:14:15;;;;;;;7.85;3.85;;;;;;;5.08;100.00;100757.81;5034820;28;20076;-64
2022/11/27 14:16:41;;;;;;;8.00;4.10;;;;;;;5.09;100.00;100757.72;5034807;28;20453;-64
2022/11/27 14:19:29;;;;;;;6.45;3.58;;;;;;;5.00;100.00;100750.50;5034643;28;20046;-64
2022/11/27 14:21:55;;;;;;;9.25;4.25;;;;;;;5.04;100.00;100743.19;5034310;28;20025;-65
2022/11/27 14:24:44;;;;;;;7.43;4.25;;;;;;;5.05;100.00;100735.16;5034632;28;20111;-62
2022/11/27 14:27:21;;;;;;;8.32;4.25;;;;;;;5.05;100.00;100740.44;5034577;28;20045;-64
2022/11/27 14:29:50;;;;;;;8.50;3.90;;;;;;;4.98;100.00;100735.78;5034374;28;20514;-63
2022/11/27 14:32:16;;;;;;;6.35;3.72;;;;;;;4.90;100.00;100724.03;5034185;28;20095;-64
2022/11/27 14:34:42;;;;;;;9.50;4.45;;;;;;;4.88;100.00;100735.66;5034575;28;20120;-63
2022/11/27 14:37:25;;;;;;;8.90;4.25;;;;;;;4.95;100.00;100720.16;5034224;28;20108;-64
2022/11/27 14:39:51;;;;;;;9.90;5.22;;;;;;;4.90;100.00;100717.94;5047174;28;20040;-62
2022/11/27 14:42:27;;;;;;;7.53;4.30;;;;;;;4.96;100.00;100716.59;5053372;28;20121;-63
2022/11/27 14:45:11;;;;;;;8.48;4.75;;;;;;;5.01;100.00;100717.88;5054001;28;20039;-63
2022/11/27 14:47:46;;;;;;;5.72;3.55;;;;;;;4.98;100.00;100710.22;5053732;28;20041;-64
2022/11/27 14:50:13;;;;;;;8.63;4.13;;;;;;;5.02;100.00;100711.66;5053264;28;20037;-62
2022/11/27 14:52:41;;;;;;;6.88;4.10;;;;;;;5.02;100.00;100706.38;5053798;28;20128;-63
2022/11/27 14:55:17;;;;;;;7.00;4.47;;;;;;;4.97;100.00;100707.69;5053446;28;20099;-64
2022/11/27 14:57:44;;;;;;;6.85;3.90;;;;;;;4.93;100.00;100701.81;5053785;28;20120;-64
2022/11/27 15:00:15;;;;;;;7.22;3.90;;;;;;;4.93;100.00;100696.53;5053101;28;20037;-62
2022/11/27 15:02:41;;;;;;;5.38;3.58;;;;;;;4.87;100.00;100697.88;5053678;28;20028;-64
2022/11/27 15:05:16;;;;;;;8.18;4.07;;;;;;;4.87;100.00;100694.41;5053626;28;20105;-62
2022/11/27 15:07:41;;;;;;;7.97;4.40;;;;;;;4.87;100.00;100689.13;5053540;28;20033;-64
2022/11/27 15:10:21;;;;;;;7.45;4.10;;;;;;;4.78;100.00;100684.59;5051756;28;20075;-64
2022/11/27 15:12:47;;;;;;;8.38;4.70;;;;;;;4.78;100.00;100677.53;5053333;28;20040;-64
2022/11/27 15:15:27;;;;;;;6.53;4.20;;;;;;;4.75;100.00;100679.56;5053598;28;20512;-64
2022/11/27 15:17:57;;;;;;;8.48;3.97;;;;;;;4.76;100.00;100671.53;5053403;28;20627;-64
2022/11/27 15:20:33;;;;;;;7.35;4.57;;;;;;;4.82;100.00;100675.47;5052304;28;20041;-62
2022/11/27 15:23:00;;;;;;;6.50;4.15;;;;;;;4.84;100.00;100660.34;5051969;28;20096;-64
2022/11/27 15:25:34;;;;;;;10.73;4.82;;;;;;;4.82;100.00;100656.97;5053570;28;20122;-63
2022/11/27 15:27:59;;;;;;;11.93;5.25;;;;;;;4.86;100.00;100656.59;5053436;28;20041;-61
2022/11/27 15:30:25;;;;;;;6.78;4.75;;;;;;;4.87;100.00;100657.44;5052132;28;20409;-61
2022/11/27 15:32:52;;;;;;;7.50;4.55;;;;;;;4.91;100.00;100635.13;5052958;28;20119;-63
2022/11/27 15:35:26;;;;;;;8.45;5.05;;;;;;;4.92;100.00;100635.94;5053127;28;20044;-61
2022/11/27 15:37:54;;;;;;;12.65;6.03;;;;;;;4.88;100.00;100641.47;5051518;28;20409;-63
2022/11/27 15:40:40;;;;;;;7.53;5.07;;;;;;;4.89;100.00;100647.63;5051709;28;20045;-63
2022/11/27 15:43:14;;;;;;;10.52;5.43;;;;;;;4.86;100.00;100629.38;5053046;28;20037;-63
2022/11/27 15:45:41;;;;;;;8.95;4.15;;;;;;;4.88;100.00;100635.34;5051743;28;20094;-62
2022/11/27 15:48:18;;;;;;;11.57;5.90;;;;;;;4.85;100.00;100630.34;5053045;28;20044;-60
2022/11/27 15:50:44;;;;;;;7.88;4.47;;;;;;;4.81;100.00;100631.56;5052486;28;20298;-57
2022/11/27 15:53:09;;;;;;;7.15;4.57;;;;;;;4.79;100.00;100630.84;5052982;28;20044;-63
2022/11/27 15:55:35;;;;;;;11.45;5.60;;;;;;;4.77;100.00;100615.16;5052865;28;20128;-61
2022/11/27 15:58:00;;;;;;;6.88;4.63;;;;;;;4.81;100.00;100613.06;5052871;28;20037;-63
2022/11/27 16:00:26;;;;;;;9.77;5.68;;;;;;;4.80;100.00;100601.69;5052377;28;20029;-63
2022/11/27 16:02:52;;;;;;;10.80;6.00;;;;;;;4.78;100.00;100602.78;5052692;28;20120;-63
2022/11/27 16:05:18;;;;;;;9.55;5.68;;;;;;;4.78;100.00;100608.06;5051735;28;20045;-63
2022/11/27 16:07:43;;;;;;;10.25;4.68;;;;;;;4.75;100.00;100603.84;5052792;28;20041;-63
2022/11/27 16:10:10;;;;;;;9.60;5.95;;;;;;;4.78;100.00;100598.34;5051157;28;20053;-63
2022/11/27 16:12:37;;;;;;;11.00;5.45;;;;;;;4.81;100.00;100598.06;5052038;28;20037;-64
2022/11/27 16:15:04;;;;;;;15.95;6.47;;;;;;;4.76;100.00;100587.09;5052325;28;20045;-63
2022/11/27 16:17:29;;;;;;;10.15;5.40;;;;;;;4.76;100.00;100589.72;5052385;28;20032;-62
2022/11/27 16:19:55;;;;;;;6.60;4.95;;;;;;;4.79;100.00;100589.47;5052205;28;20033;-69
2022/11/27 16:22:20;;;;;;;7.65;5.20;;;;;;;4.84;100.00;100597.00;5052080;28;20055;-68
2022/11/27 16:24:46;;;;;;;9.25;5.50;;;;;;;4.80;100.00;100599.03;5052198;28;20036;-68
2022/11/27 16:27:11;;;;;;;10.07;5.15;;;;;;;4.79;100.00;100599.19;5052199;28;20041;-68
2022/11/27 16:29:37;;;;;;;8.57;5.05;;;;;;;4.73;100.00;100595.25;5051979;28;20044;-68
2022/11/27 16:32:02;;;;;;;10.65;5.72;;;;;;;4.68;100.00;100588.66;5050596;28;20482;-69
2022/11/27 16:34:28;;;;;;;11.45;5.90;;;;;;;4.70;100.00;100587.59;5052215;28;20041;-68
2022/11/27 16:36:53;;;;;;;9.70;5.35;;;;;;;4.71;100.00;100589.25;5052252;28;20568;-68
2022/11/27 16:39:19;;;;;;;13.40;6.25;;;;;;;4.72;100.00;100584.81;5050828;28;20036;-69
2022/11/27 16:41:44;;;;;;;10.98;6.32;;;;;;;4.72;100.00;100576.91;5050415;28;20029;-68
2022/11/27 16:44:13;;;;;;;8.60;5.63;;;;;;;4.66;100.00;100578.25;5050727;28;20044;-68
2022/11/27 16:46:40;;;;;;;10.18;5.50;;;;;;;4.65;100.00;100576.56;5050826;28;20182;-68
2022/11/27 16:49:06;;;;;;;10.95;6.03;;;;;;;4.61;100.00;100575.97;5052119;28;20040;-68
2022/11/27 16:51:33;;;;;;;12.73;6.25;;;;;;;4.58;100.00;100573.59;5051427;28;20040;-68
2022/11/27 16:54:01;;;;;;;9.80;5.07;;;;;;;4.58;100.00;100565.69;5050619;28;20162;-69
2022/11/27 16:56:28;;;;;;;10.73;5.28;;;;;;;4.58;100.00;100554.31;5050730;28;20448;-69
2022/11/27 16:58:55;;;;;;;10.05;5.65;;;;;;;4.57;100.00;100544.72;5051862;28;20116;-68
2022/11/27 17:01:27;;;;;;;9.70;5.00;;;;;;;4.57;100.00;100544.72;5050078;28;20032;-69
2022/11/27 17:03:53;;;;;;;10.02;5.55;;;;;;;4.56;100.00;100543.00;5051737;28;20040;-68